createdAt,value
2016-10-12T00:00:12.265Z,0
2016-10-12T00:01:12.946Z,0
2016-10-12T00:02:13.607Z,0
2016-10-12T00:03:14.311Z,0
2016-10-12T00:04:14.968Z,0
2016-10-12T00:05:15.647Z,0
2016-10-12T00:06:16.357Z,0
2016-10-12T00:07:17.053Z,0
2016-10-12T00:08:17.718Z,0
2016-10-12T00:09:18.393Z,0
2016-10-12T00:10:19.071Z,0
2016-10-12T00:11:19.730Z,0
2016-10-12T00:12:20.398Z,0
2016-10-12T00:13:21.061Z,0
2016-10-12T00:14:21.745Z,0
2016-10-12T00:15:22.414Z,0
2016-10-12T00:16:23.090Z,0
2016-10-12T00:17:23.773Z,0
2016-10-12T00:18:24.436Z,0
2016-10-12T00:19:25.104Z,0
2016-10-12T00:20:25.769Z,0
2016-10-12T00:21:26.441Z,0
2016-10-12T00:22:27.108Z,0
2016-10-12T00:23:27.779Z,0
2016-10-12T00:24:28.460Z,0
2016-10-12T00:25:29.142Z,0
2016-10-12T00:26:29.810Z,0
2016-10-12T00:27:30.471Z,0
2016-10-12T00:28:31.215Z,0
2016-10-12T00:29:31.878Z,0
2016-10-12T00:30:32.556Z,0
2016-10-12T00:31:33.220Z,0
2016-10-12T00:32:33.882Z,0
2016-10-12T00:33:34.554Z,0
2016-10-12T00:34:35.232Z,0
2016-10-12T00:35:35.913Z,0
2016-10-12T00:36:36.583Z,0
2016-10-12T00:37:37.251Z,0
2016-10-12T00:38:37.926Z,0
2016-10-12T00:39:38.605Z,0
2016-10-12T00:40:39.282Z,0
2016-10-12T00:41:39.940Z,0
2016-10-12T00:42:40.607Z,0
2016-10-12T00:43:41.285Z,0
2016-10-12T00:44:42.003Z,0
2016-10-12T00:45:42.700Z,0
2016-10-12T00:46:43.371Z,0
2016-10-12T00:47:44.050Z,0
2016-10-12T00:48:44.759Z,0
2016-10-12T00:49:45.428Z,0
2016-10-12T00:50:46.098Z,0
2016-10-12T00:51:46.762Z,0
2016-10-12T00:52:47.454Z,0
2016-10-12T00:53:48.158Z,0
2016-10-12T00:54:48.901Z,0
2016-10-12T00:55:49.623Z,0
2016-10-12T00:56:50.284Z,0
2016-10-12T00:57:50.950Z,0
2016-10-12T00:58:51.620Z,0
2016-10-12T00:59:52.296Z,0
2016-10-12T01:00:52.972Z,0
2016-10-12T01:01:53.643Z,0
2016-10-12T01:02:54.313Z,0
2016-10-12T01:03:55.088Z,0
2016-10-12T01:04:55.764Z,0
2016-10-12T01:05:56.436Z,0
2016-10-12T01:06:57.110Z,0
2016-10-12T01:07:57.779Z,0
2016-10-12T01:08:58.450Z,0
2016-10-12T01:09:59.121Z,0
2016-10-12T01:10:59.792Z,0
2016-10-12T01:12:00.464Z,0
2016-10-12T01:13:01.141Z,0
2016-10-12T01:14:01.809Z,0
2016-10-12T01:15:02.488Z,0
2016-10-12T01:16:03.155Z,0
2016-10-12T01:17:03.827Z,0
2016-10-12T01:18:04.498Z,0
2016-10-12T01:19:05.177Z,0
2016-10-12T01:20:05.847Z,0
2016-10-12T01:21:06.524Z,0
2016-10-12T01:22:07.185Z,0
2016-10-12T01:23:07.862Z,0
2016-10-12T01:24:08.533Z,0
2016-10-12T01:25:09.229Z,0
2016-10-12T01:26:09.909Z,0
2016-10-12T01:27:10.597Z,0
2016-10-12T01:28:11.278Z,0
2016-10-12T01:29:11.950Z,0
2016-10-12T01:30:12.651Z,0
2016-10-12T01:31:13.345Z,0
2016-10-12T01:32:14.022Z,0
2016-10-12T01:33:14.691Z,0
2016-10-12T01:34:15.375Z,0
2016-10-12T01:35:16.040Z,0
2016-10-12T01:36:16.702Z,0
2016-10-12T01:37:17.378Z,0
2016-10-12T01:38:18.049Z,0
2016-10-12T01:39:18.719Z,0
2016-10-12T01:40:19.398Z,0
2016-10-12T01:41:20.069Z,0
2016-10-12T01:42:20.743Z,0
2016-10-12T01:43:21.408Z,0
2016-10-12T01:44:22.081Z,0
2016-10-12T01:45:22.764Z,0
2016-10-12T01:46:23.424Z,0
2016-10-12T01:47:24.098Z,0
2016-10-12T01:48:24.766Z,0
2016-10-12T01:49:25.448Z,0
2016-10-12T01:50:26.109Z,0
2016-10-12T01:51:26.795Z,0
2016-10-12T01:52:27.459Z,0
2016-10-12T01:53:28.138Z,0
2016-10-12T01:54:28.912Z,0
2016-10-12T01:55:29.590Z,0
2016-10-12T01:56:30.253Z,0
2016-10-12T01:57:30.981Z,0
2016-10-12T01:58:31.645Z,0
2016-10-12T01:59:32.319Z,0
2016-10-12T02:00:33.002Z,0
2016-10-12T02:01:33.679Z,0
2016-10-12T02:02:34.337Z,0
2016-10-12T02:03:35.018Z,0
2016-10-12T02:04:35.691Z,0
2016-10-12T02:05:36.363Z,0
2016-10-12T02:06:37.036Z,0
2016-10-12T02:07:37.708Z,0
2016-10-12T02:08:38.370Z,0
2016-10-12T02:09:39.039Z,0
2016-10-12T02:10:39.718Z,0
2016-10-12T02:11:40.383Z,0
2016-10-12T02:12:41.068Z,0
2016-10-12T02:13:41.735Z,0
2016-10-12T02:14:42.407Z,0
2016-10-12T02:15:43.078Z,0
2016-10-12T02:16:43.764Z,0
2016-10-12T02:17:44.425Z,0
2016-10-12T02:18:45.093Z,0
2016-10-12T02:19:45.797Z,0
2016-10-12T02:20:46.459Z,0
2016-10-12T02:21:47.144Z,0
2016-10-12T02:22:47.807Z,0
2016-10-12T02:23:48.478Z,0
2016-10-12T02:24:49.148Z,0
2016-10-12T02:25:49.851Z,0
2016-10-12T02:26:50.522Z,0
2016-10-12T02:27:51.205Z,0
2016-10-12T02:28:51.864Z,0
2016-10-12T02:29:52.540Z,0
2016-10-12T02:30:53.230Z,0
2016-10-12T02:31:53.912Z,0
2016-10-12T02:32:54.584Z,0
2016-10-12T02:33:55.260Z,0
2016-10-12T02:34:55.930Z,0
2016-10-12T02:35:56.598Z,0
2016-10-12T02:36:57.269Z,0
2016-10-12T02:37:57.963Z,0
2016-10-12T02:38:58.673Z,0
2016-10-12T02:39:59.368Z,0
2016-10-12T02:41:00.033Z,0
2016-10-12T02:42:00.704Z,0
2016-10-12T02:43:01.395Z,0
2016-10-12T02:44:02.080Z,0
2016-10-12T02:45:02.774Z,0
2016-10-12T02:46:03.447Z,0
2016-10-12T02:47:04.137Z,0
2016-10-12T02:48:04.807Z,0
2016-10-12T02:49:05.493Z,0
2016-10-12T02:50:06.161Z,0
2016-10-12T02:51:06.843Z,0
2016-10-12T02:52:07.526Z,0
2016-10-12T02:53:08.197Z,0
2016-10-12T02:54:08.855Z,0
2016-10-12T02:55:09.571Z,0
2016-10-12T02:56:10.248Z,0
2016-10-12T02:57:10.923Z,0
2016-10-12T02:58:11.596Z,0
2016-10-12T02:59:12.265Z,0
2016-10-12T03:00:12.949Z,0
2016-10-12T03:01:13.683Z,0
2016-10-12T03:02:14.378Z,0
2016-10-12T03:03:15.064Z,0
2016-10-12T03:04:15.784Z,0
2016-10-12T03:05:16.508Z,0
2016-10-12T03:06:17.178Z,0
2016-10-12T03:07:17.841Z,0
2016-10-12T03:08:18.517Z,0
2016-10-12T03:09:19.191Z,0
2016-10-12T03:10:19.859Z,0
2016-10-12T03:11:20.557Z,0
2016-10-12T03:12:21.238Z,0
2016-10-12T03:13:21.918Z,0
2016-10-12T03:14:22.674Z,0
2016-10-12T03:15:23.366Z,0
2016-10-12T03:16:24.055Z,0
2016-10-12T03:17:24.759Z,0
2016-10-12T03:18:25.420Z,0
2016-10-12T03:19:26.094Z,0
2016-10-12T03:20:26.764Z,0
2016-10-12T03:21:27.434Z,0
2016-10-12T03:22:28.118Z,0
2016-10-12T03:23:28.784Z,0
2016-10-12T03:24:29.459Z,0
2016-10-12T03:25:30.130Z,0
2016-10-12T03:26:30.807Z,0
2016-10-12T03:27:31.491Z,0
2016-10-12T03:28:32.149Z,0
2016-10-12T03:29:32.840Z,0
2016-10-12T03:30:33.501Z,0
2016-10-12T03:31:34.182Z,0
2016-10-12T03:32:34.857Z,0
2016-10-12T03:33:35.528Z,0
2016-10-12T03:34:36.223Z,0
2016-10-12T03:35:36.900Z,0
2016-10-12T03:36:37.574Z,0
2016-10-12T03:37:38.247Z,0
2016-10-12T03:38:38.918Z,0
2016-10-12T03:39:39.596Z,0
2016-10-12T03:40:40.277Z,0
2016-10-12T03:41:40.940Z,0
2016-10-12T03:42:41.633Z,0
2016-10-12T03:43:42.332Z,0
2016-10-12T03:44:43.005Z,0
2016-10-12T03:45:43.677Z,0
2016-10-12T03:46:44.345Z,0
2016-10-12T03:47:45.023Z,0
2016-10-12T03:48:45.690Z,0
2016-10-12T03:49:46.370Z,0
2016-10-12T03:50:47.036Z,0
2016-10-12T03:51:47.706Z,0
2016-10-12T03:52:48.386Z,0
2016-10-12T03:53:49.051Z,0
2016-10-12T03:54:49.737Z,0
2016-10-12T03:55:50.412Z,0
2016-10-12T03:56:51.095Z,0
2016-10-12T03:57:51.767Z,0
2016-10-12T03:58:52.463Z,0
2016-10-12T03:59:53.142Z,0
2016-10-12T04:00:53.812Z,0
2016-10-12T04:01:54.494Z,0
2016-10-12T04:02:55.156Z,0
2016-10-12T04:03:55.824Z,0
2016-10-12T04:04:56.498Z,0
2016-10-12T04:05:57.175Z,0
2016-10-12T04:06:57.844Z,0
2016-10-12T04:07:58.513Z,0
2016-10-12T04:08:59.184Z,0
2016-10-12T04:09:59.856Z,0
2016-10-12T04:11:00.532Z,0
2016-10-12T04:12:01.268Z,0
2016-10-12T04:13:01.934Z,0
2016-10-12T04:14:02.604Z,0
2016-10-12T04:15:03.267Z,0
2016-10-12T04:16:03.942Z,0
2016-10-12T04:17:04.624Z,0
2016-10-12T04:18:05.287Z,0
2016-10-12T04:19:05.975Z,0
2016-10-12T04:20:06.636Z,0
2016-10-12T04:21:07.306Z,0
2016-10-12T04:22:07.973Z,0
2016-10-12T04:23:08.653Z,0
2016-10-12T04:24:09.322Z,0
2016-10-12T04:25:09.991Z,0
2016-10-12T04:26:10.667Z,0
2016-10-12T04:27:11.350Z,0
2016-10-12T04:28:12.048Z,0
2016-10-12T04:29:12.740Z,0
2016-10-12T04:30:13.422Z,0
2016-10-12T04:31:14.094Z,0
2016-10-12T04:32:14.793Z,0
2016-10-12T04:33:15.494Z,0
2016-10-12T04:34:16.165Z,0
2016-10-12T04:35:16.866Z,0
2016-10-12T04:36:17.539Z,0
2016-10-12T04:37:18.212Z,0
2016-10-12T04:38:18.905Z,0
2016-10-12T04:39:19.569Z,0
2016-10-12T04:40:20.253Z,0
2016-10-12T04:41:20.912Z,0
2016-10-12T04:42:21.586Z,0
2016-10-12T04:43:22.255Z,0
2016-10-12T04:44:22.918Z,0
2016-10-12T04:45:23.587Z,0
2016-10-12T04:46:24.298Z,0
2016-10-12T04:47:24.991Z,0
2016-10-12T04:48:25.671Z,0
2016-10-12T04:49:26.363Z,0
2016-10-12T04:50:27.055Z,0
2016-10-12T04:51:27.724Z,0
2016-10-12T04:52:28.403Z,0
2016-10-12T04:53:29.069Z,0
2016-10-12T04:54:29.751Z,0
2016-10-12T04:55:30.412Z,0
2016-10-12T04:56:31.101Z,0
2016-10-12T04:57:31.775Z,0
2016-10-12T04:58:32.440Z,0
2016-10-12T04:59:33.107Z,0
2016-10-12T05:00:33.776Z,0
2016-10-12T05:01:34.443Z,0
2016-10-12T05:02:35.134Z,0
2016-10-12T05:03:35.805Z,0
2016-10-12T05:04:36.473Z,0
2016-10-12T05:05:37.137Z,0
2016-10-12T05:06:37.846Z,0
2016-10-12T05:07:38.533Z,0
2016-10-12T05:08:39.208Z,0
2016-10-12T05:09:39.893Z,0
2016-10-12T05:10:40.577Z,0
2016-10-12T05:11:41.247Z,0
2016-10-12T05:12:41.944Z,0
2016-10-12T05:13:42.621Z,0
2016-10-12T05:14:43.317Z,0
2016-10-12T05:15:44.014Z,0
2016-10-12T05:16:44.688Z,0
2016-10-12T05:17:45.475Z,0
2016-10-12T05:18:46.162Z,0
2016-10-12T05:19:46.861Z,4
2016-10-12T05:20:47.552Z,0
2016-10-12T05:21:48.233Z,4
2016-10-12T05:22:48.955Z,8
2016-10-12T05:23:49.653Z,8
2016-10-12T05:24:50.416Z,12
2016-10-12T05:25:51.436Z,16
2016-10-12T05:26:52.146Z,20
2016-10-12T05:27:52.820Z,24
2016-10-12T05:28:53.527Z,32
2016-10-12T05:29:54.192Z,28
2016-10-12T05:30:54.874Z,24
2016-10-12T05:31:55.537Z,28
2016-10-12T05:32:56.212Z,24
2016-10-12T05:33:56.879Z,28
2016-10-12T05:34:57.572Z,40
2016-10-12T05:35:58.239Z,40
2016-10-12T05:36:58.922Z,40
2016-10-12T05:37:59.627Z,44
2016-10-12T05:39:00.349Z,44
2016-10-12T05:40:01.022Z,56
2016-10-12T05:41:01.711Z,88
2016-10-12T05:42:02.385Z,104
2016-10-12T05:43:03.050Z,112
2016-10-12T05:44:03.720Z,116
2016-10-12T05:45:04.379Z,124
2016-10-12T05:46:05.062Z,132
2016-10-12T05:47:05.733Z,148
2016-10-12T05:48:06.413Z,172
2016-10-12T05:49:07.431Z,192
2016-10-12T05:50:08.112Z,212
2016-10-12T05:51:08.777Z,228
2016-10-12T05:52:09.449Z,244
2016-10-12T05:53:10.124Z,276
2016-10-12T05:54:10.799Z,296
2016-10-12T05:55:11.476Z,308
2016-10-12T05:56:14.358Z,332
2016-10-12T05:57:16.568Z,340
2016-10-12T05:58:19.634Z,344
2016-10-12T05:59:21.554Z,356
2016-10-12T06:00:22.255Z,368
2016-10-12T06:01:22.943Z,392
2016-10-12T06:02:23.650Z,408
2016-10-12T06:03:24.326Z,412
2016-10-12T06:04:25.037Z,440
2016-10-12T06:05:25.723Z,468
2016-10-12T06:06:26.393Z,488
2016-10-12T06:07:27.061Z,504
2016-10-12T06:08:27.732Z,532
2016-10-12T06:09:28.396Z,528
2016-10-12T06:10:29.078Z,556
2016-10-12T06:11:29.773Z,552
2016-10-12T06:12:30.445Z,512
2016-10-12T06:13:31.147Z,492
2016-10-12T06:14:31.818Z,460
2016-10-12T06:15:32.490Z,448
2016-10-12T06:16:33.163Z,452
2016-10-12T06:17:33.849Z,408
2016-10-12T06:18:34.586Z,360
2016-10-12T06:19:35.314Z,380
2016-10-12T06:20:36.029Z,368
2016-10-12T06:21:36.787Z,420
2016-10-12T06:22:37.450Z,464
2016-10-12T06:23:38.123Z,504
2016-10-12T06:24:38.802Z,520
2016-10-12T06:25:39.471Z,624
2016-10-12T06:26:40.137Z,716
2016-10-12T06:27:40.807Z,760
2016-10-12T06:28:41.484Z,764
2016-10-12T06:29:42.155Z,784
2016-10-12T06:30:42.825Z,852
2016-10-12T06:31:43.499Z,968
2016-10-12T06:32:44.172Z,1168
2016-10-12T06:33:44.861Z,1432
2016-10-12T06:34:45.521Z,1692
2016-10-12T06:35:46.206Z,1884
2016-10-12T06:36:46.892Z,1892
2016-10-12T06:37:47.584Z,1880
2016-10-12T06:38:48.260Z,1780
2016-10-12T06:39:48.940Z,1796
2016-10-12T06:40:49.614Z,1788
2016-10-12T06:41:50.285Z,1728
2016-10-12T06:42:50.972Z,1692
2016-10-12T06:43:51.650Z,1668
2016-10-12T06:44:52.321Z,1480
2016-10-12T06:45:53.009Z,1340
2016-10-12T06:46:53.689Z,1192
2016-10-12T06:47:54.367Z,1080
2016-10-12T06:48:55.032Z,1044
2016-10-12T06:49:55.710Z,936
2016-10-12T06:50:56.383Z,916
2016-10-12T06:51:57.060Z,960
2016-10-12T06:52:57.717Z,1044
2016-10-12T06:53:58.397Z,1040
2016-10-12T06:54:59.064Z,992
2016-10-12T06:55:59.791Z,960
2016-10-12T06:57:00.483Z,920
2016-10-12T06:58:01.185Z,948
2016-10-12T06:59:01.876Z,948
2016-10-12T07:00:02.586Z,944
2016-10-12T07:01:03.253Z,952
2016-10-12T07:02:03.940Z,1048
2016-10-12T07:03:04.600Z,1076
2016-10-12T07:04:05.269Z,1128
2016-10-12T07:05:05.941Z,1364
2016-10-12T07:06:06.624Z,1460
2016-10-12T07:07:07.288Z,1452
2016-10-12T07:08:08.008Z,1384
2016-10-12T07:09:08.678Z,1432
2016-10-12T07:10:09.349Z,1452
2016-10-12T07:11:10.021Z,1376
2016-10-12T07:12:10.700Z,1304
2016-10-12T07:13:11.367Z,1152
2016-10-12T07:14:12.032Z,1104
2016-10-12T07:15:12.717Z,1072
2016-10-12T07:16:13.384Z,972
2016-10-12T07:17:14.069Z,900
2016-10-12T07:18:14.740Z,848
2016-10-12T07:19:15.527Z,840
2016-10-12T07:20:16.196Z,864
2016-10-12T07:21:16.855Z,860
2016-10-12T07:22:17.536Z,916
2016-10-12T07:23:18.194Z,940
2016-10-12T07:24:18.864Z,1028
2016-10-12T07:25:19.598Z,1100
2016-10-12T07:26:20.456Z,1156
2016-10-12T07:27:21.148Z,1188
2016-10-12T07:28:21.813Z,1248
2016-10-12T07:29:22.667Z,1340
2016-10-12T07:30:23.343Z,1428
2016-10-12T07:31:24.042Z,1516
2016-10-12T07:32:24.713Z,1660
2016-10-12T07:33:25.400Z,1836
2016-10-12T07:34:26.110Z,2032
2016-10-12T07:35:26.784Z,2180
2016-10-12T07:36:27.453Z,2360
2016-10-12T07:37:28.442Z,2464
2016-10-12T07:38:29.245Z,2356
2016-10-12T07:39:29.930Z,2196
2016-10-12T07:40:30.604Z,2212
2016-10-12T07:41:31.276Z,2288
2016-10-12T07:42:31.966Z,2320
2016-10-12T07:43:32.796Z,2412
2016-10-12T07:44:33.476Z,2448
2016-10-12T07:45:34.168Z,2244
2016-10-12T07:46:34.862Z,2208
2016-10-12T07:47:35.573Z,2284
2016-10-12T07:48:36.315Z,2444
2016-10-12T07:49:37.044Z,2596
2016-10-12T07:50:37.728Z,2772
2016-10-12T07:51:38.446Z,2772
2016-10-12T07:52:39.211Z,2748
2016-10-12T07:53:39.934Z,2728
2016-10-12T07:54:40.643Z,2648
2016-10-12T07:55:41.419Z,2476
2016-10-12T07:56:42.207Z,2308
2016-10-12T07:57:42.962Z,2196
2016-10-12T07:58:43.658Z,2156
2016-10-12T07:59:44.461Z,2228
2016-10-12T08:00:45.217Z,2492
2016-10-12T08:01:46.187Z,2752
2016-10-12T08:02:46.831Z,2980
2016-10-12T08:03:47.600Z,3268
2016-10-12T08:04:48.383Z,3444
2016-10-12T08:05:49.067Z,3608
2016-10-12T08:06:49.748Z,3688
2016-10-12T08:07:50.449Z,3844
2016-10-12T08:08:51.175Z,4020
2016-10-12T08:09:51.889Z,4204
2016-10-12T08:10:52.588Z,4456
2016-10-12T08:11:53.439Z,4644
2016-10-12T08:12:54.127Z,4680
2016-10-12T08:13:54.835Z,4604
2016-10-12T08:14:55.572Z,4656
2016-10-12T08:15:56.402Z,4740
2016-10-12T08:16:57.210Z,4856
2016-10-12T08:17:57.889Z,4936
2016-10-12T08:18:58.617Z,5024
2016-10-12T08:19:59.304Z,5156
2016-10-12T08:21:00.052Z,5280
2016-10-12T08:22:00.807Z,5404
2016-10-12T08:23:01.501Z,5504
2016-10-12T08:24:02.182Z,5556
2016-10-12T08:25:02.889Z,5640
2016-10-12T08:26:03.569Z,5736
2016-10-12T08:27:04.336Z,5892
2016-10-12T08:28:05.187Z,6000
2016-10-12T08:29:05.866Z,6088
2016-10-12T08:30:06.556Z,6220
2016-10-12T08:31:07.260Z,6392
2016-10-12T08:32:08.056Z,6564
2016-10-12T08:33:08.747Z,6680
2016-10-12T08:34:09.514Z,6952
2016-10-12T08:35:10.229Z,6936
2016-10-12T08:36:10.997Z,6908
2016-10-12T08:37:11.818Z,7124
2016-10-12T08:38:12.523Z,7424
2016-10-12T08:39:13.215Z,7868
2016-10-12T08:40:13.925Z,8104
2016-10-12T08:41:14.683Z,8304
2016-10-12T08:42:15.405Z,8728
2016-10-12T08:43:16.095Z,8956
2016-10-12T08:44:16.803Z,9452
2016-10-12T08:45:17.539Z,9900
2016-10-12T08:46:18.267Z,10276
2016-10-12T08:47:18.960Z,10616
2016-10-12T08:48:19.644Z,11288
2016-10-12T08:49:20.389Z,12680
2016-10-12T08:50:21.100Z,13436
2016-10-12T08:51:21.757Z,14480
2016-10-12T08:52:22.456Z,14304
2016-10-12T08:53:23.165Z,15356
2016-10-12T08:54:23.853Z,14744
2016-10-12T08:55:24.556Z,14092
2016-10-12T08:56:25.244Z,14116
2016-10-12T08:57:25.964Z,13884
2016-10-12T08:58:26.599Z,13132
2016-10-12T08:59:27.302Z,12976
2016-10-12T09:00:28.026Z,13148
2016-10-12T09:01:28.745Z,12820
2016-10-12T09:02:29.425Z,12676
2016-10-12T09:03:30.185Z,12452
2016-10-12T09:04:30.902Z,12680
2016-10-12T09:05:31.607Z,12824
2016-10-12T09:06:32.306Z,12872
2016-10-12T09:07:33.025Z,12596
2016-10-12T09:08:33.709Z,12312
2016-10-12T09:09:34.423Z,12600
2016-10-12T09:10:35.123Z,12804
2016-10-12T09:11:35.821Z,12812
2016-10-12T09:12:36.499Z,12464
2016-10-12T09:13:37.217Z,11828
2016-10-12T09:14:38.034Z,11924
2016-10-12T09:15:38.771Z,11436
2016-10-12T09:16:39.478Z,10408
2016-10-12T09:17:40.165Z,8908
2016-10-12T09:18:40.856Z,8732
2016-10-12T09:19:41.549Z,8436
2016-10-12T09:20:42.228Z,7120
2016-10-12T09:21:42.921Z,8224
2016-10-12T09:22:43.615Z,9924
2016-10-12T09:23:44.290Z,10460
2016-10-12T09:24:44.979Z,9168
2016-10-12T09:25:45.683Z,8468
2016-10-12T09:26:46.391Z,10644
2016-10-12T09:27:47.079Z,9856
2016-10-12T09:28:47.807Z,6196
2016-10-12T09:29:48.558Z,5928
2016-10-12T09:30:49.251Z,6560
2016-10-12T09:31:49.949Z,8388
2016-10-12T09:32:50.673Z,9532
2016-10-12T09:33:51.399Z,9856
2016-10-12T09:34:52.071Z,9472
2016-10-12T09:35:52.765Z,7596
2016-10-12T09:36:53.441Z,8188
2016-10-12T09:37:54.165Z,7764
2016-10-12T09:38:54.873Z,5560
2016-10-12T09:39:55.599Z,7552
2016-10-12T09:40:56.313Z,8180
2016-10-12T09:41:57.002Z,8272
2016-10-12T09:42:57.681Z,8880
2016-10-12T09:43:58.366Z,6548
2016-10-12T09:44:59.079Z,4576
2016-10-12T09:45:59.763Z,4456
2016-10-12T09:47:00.532Z,4820
2016-10-12T09:48:01.233Z,6608
2016-10-12T09:49:01.937Z,6736
2016-10-12T09:50:02.666Z,5800
2016-10-12T09:51:03.364Z,5220
2016-10-12T09:52:04.197Z,7008
2016-10-12T09:53:04.910Z,8284
2016-10-12T09:54:05.619Z,9648
2016-10-12T09:55:06.322Z,10932
2016-10-12T09:56:07.029Z,11776
2016-10-12T09:57:07.721Z,9632
2016-10-12T09:58:08.411Z,9556
2016-10-12T09:59:09.192Z,11800
2016-10-12T10:00:09.928Z,12920
2016-10-12T10:01:10.616Z,12224
2016-10-12T10:02:11.318Z,9952
2016-10-12T10:03:12.016Z,9772
2016-10-12T10:04:12.716Z,8820
2016-10-12T10:05:13.397Z,7544
2016-10-12T10:06:14.081Z,7860
2016-10-12T10:07:14.781Z,7932
2016-10-12T10:08:15.486Z,9568
2016-10-12T10:09:16.178Z,10884
2016-10-12T10:10:16.865Z,11320
2016-10-12T10:11:17.540Z,11132
2016-10-12T10:12:18.253Z,10212
2016-10-12T10:13:18.916Z,8872
2016-10-12T10:14:19.671Z,7452
2016-10-12T10:15:20.364Z,6624
2016-10-12T10:16:21.054Z,6336
2016-10-12T10:17:21.714Z,6088
2016-10-12T10:18:22.397Z,5792
2016-10-12T10:19:23.092Z,5440
2016-10-12T10:20:23.782Z,5356
2016-10-12T10:21:24.506Z,5092
2016-10-12T10:22:25.224Z,4600
2016-10-12T10:23:25.902Z,4632
2016-10-12T10:24:26.588Z,4692
2016-10-12T10:25:27.288Z,4460
2016-10-12T10:26:27.977Z,4932
2016-10-12T10:27:28.663Z,5440
2016-10-12T10:28:29.361Z,5928
2016-10-12T10:29:30.073Z,6068
2016-10-12T10:30:30.758Z,6140
2016-10-12T10:31:31.429Z,6224
2016-10-12T10:32:32.106Z,6140
2016-10-12T10:33:32.778Z,6244
2016-10-12T10:34:33.455Z,5820
2016-10-12T10:35:34.210Z,5576
2016-10-12T10:36:34.929Z,5592
2016-10-12T10:37:35.621Z,5888
2016-10-12T10:38:36.299Z,5636
2016-10-12T10:39:36.989Z,5208
2016-10-12T10:40:37.682Z,5064
2016-10-12T10:41:38.367Z,3940
2016-10-12T10:42:39.047Z,4112
2016-10-12T10:43:39.757Z,4448
2016-10-12T10:44:40.540Z,4220
2016-10-12T10:45:41.235Z,3516
2016-10-12T10:46:41.940Z,2688
2016-10-12T10:47:42.649Z,2972
2016-10-12T10:48:43.332Z,3384
2016-10-12T10:49:44.039Z,3156
2016-10-12T10:50:44.758Z,3156
2016-10-12T10:51:45.457Z,2872
2016-10-12T10:52:46.232Z,2512
2016-10-12T10:53:46.930Z,3328
2016-10-12T10:54:47.766Z,3792
2016-10-12T10:55:48.440Z,3712
2016-10-12T10:56:49.153Z,3436
2016-10-12T10:57:49.866Z,3544
2016-10-12T10:58:50.637Z,3344
2016-10-12T10:59:51.472Z,3436
2016-10-12T11:00:52.276Z,3936
2016-10-12T11:01:52.985Z,4324
2016-10-12T11:02:53.674Z,4120
2016-10-12T11:03:54.374Z,3832
2016-10-12T11:04:55.071Z,4148
2016-10-12T11:05:55.893Z,4424
2016-10-12T11:06:56.646Z,3892
2016-10-12T11:07:57.327Z,3468
2016-10-12T11:08:58.049Z,3368
2016-10-12T11:09:58.763Z,3284
2016-10-12T11:10:59.519Z,3632
2016-10-12T11:12:00.216Z,3744
2016-10-12T11:13:00.916Z,3400
2016-10-12T11:14:01.626Z,3396
2016-10-12T11:15:02.327Z,3148
2016-10-12T11:16:03.016Z,3300
2016-10-12T11:17:03.696Z,3476
2016-10-12T11:18:04.409Z,3992
2016-10-12T11:19:05.115Z,4444
2016-10-12T11:20:05.811Z,4748
2016-10-12T11:21:06.494Z,4612
2016-10-12T11:22:07.214Z,4364
2016-10-12T11:23:07.904Z,4772
2016-10-12T11:24:08.626Z,5404
2016-10-12T11:25:09.325Z,6912
2016-10-12T11:26:10.034Z,6896
2016-10-12T11:27:10.717Z,7124
2016-10-12T11:28:11.416Z,8300
2016-10-12T11:29:12.102Z,8272
2016-10-12T11:30:12.810Z,8600
2016-10-12T11:31:13.547Z,8940
2016-10-12T11:32:14.283Z,10544
2016-10-12T11:33:14.967Z,9356
2016-10-12T11:34:15.696Z,7272
2016-10-12T11:35:16.423Z,5084
2016-10-12T11:36:17.153Z,4164
2016-10-12T11:37:17.860Z,3152
2016-10-12T11:38:18.569Z,2824
2016-10-12T11:39:19.248Z,3000
2016-10-12T11:40:19.925Z,3524
2016-10-12T11:41:20.596Z,4032
2016-10-12T11:42:21.271Z,4480
2016-10-12T11:43:21.964Z,4936
2016-10-12T11:44:22.649Z,5184
2016-10-12T11:45:23.341Z,5516
2016-10-12T11:46:24.051Z,5684
2016-10-12T11:47:24.761Z,5888
2016-10-12T11:48:25.408Z,4532
2016-10-12T11:49:26.068Z,3852
2016-10-12T11:50:26.741Z,2744
2016-10-12T11:51:27.405Z,1880
2016-10-12T11:52:28.090Z,1416
2016-10-12T11:53:28.828Z,1044
2016-10-12T11:54:29.500Z,828
2016-10-12T11:55:30.175Z,644
2016-10-12T11:56:30.882Z,520
2016-10-12T11:57:31.628Z,460
2016-10-12T11:58:32.336Z,440
2016-10-12T11:59:33.006Z,480
2016-10-12T12:00:33.668Z,580
2016-10-12T12:01:34.338Z,740
2016-10-12T12:02:35.044Z,952
2016-10-12T12:03:35.733Z,1316
2016-10-12T12:04:36.419Z,1780
2016-10-12T12:05:37.090Z,1860
2016-10-12T12:06:37.813Z,2316
2016-10-12T12:07:38.482Z,2540
2016-10-12T12:08:39.150Z,2380
2016-10-12T12:09:39.930Z,2356
2016-10-12T12:10:40.615Z,2624
2016-10-12T12:11:41.310Z,2456
2016-10-12T12:12:41.986Z,2504
2016-10-12T12:13:42.670Z,2716
2016-10-12T12:14:43.342Z,3024
2016-10-12T12:15:44.017Z,3440
2016-10-12T12:16:44.701Z,3620
2016-10-12T12:17:45.412Z,3684
2016-10-12T12:18:46.147Z,3528
2016-10-12T12:19:46.859Z,3524
2016-10-12T12:20:47.569Z,3724
2016-10-12T12:21:48.252Z,3904
2016-10-12T12:22:48.959Z,3968
2016-10-12T12:23:49.643Z,4044
2016-10-12T12:24:50.316Z,4084
2016-10-12T12:25:50.992Z,4216
2016-10-12T12:26:51.664Z,4340
2016-10-12T12:27:52.342Z,4492
2016-10-12T12:28:53.010Z,4428
2016-10-12T12:29:53.685Z,4364
2016-10-12T12:30:54.401Z,4368
2016-10-12T12:31:55.075Z,4356
2016-10-12T12:32:55.744Z,4244
2016-10-12T12:33:56.420Z,4184
2016-10-12T12:34:57.107Z,4056
2016-10-12T12:35:57.767Z,3972
2016-10-12T12:36:58.438Z,3856
2016-10-12T12:37:59.117Z,3744
2016-10-12T12:38:59.782Z,3644
2016-10-12T12:40:00.522Z,3616
2016-10-12T12:41:01.150Z,3592
2016-10-12T12:42:01.843Z,3456
2016-10-12T12:43:02.530Z,3416
2016-10-12T12:44:03.244Z,3392
2016-10-12T12:45:03.922Z,3328
2016-10-12T12:46:04.635Z,3412
2016-10-12T12:47:05.390Z,3448
2016-10-12T12:48:06.093Z,3272
2016-10-12T12:49:06.782Z,3396
2016-10-12T12:50:07.480Z,3704
2016-10-12T12:51:08.159Z,3236
2016-10-12T12:52:08.896Z,3516
2016-10-12T12:53:09.571Z,2496
2016-10-12T12:54:10.265Z,1800
2016-10-12T12:55:10.955Z,1724
2016-10-12T12:56:11.672Z,1348
2016-10-12T12:57:12.387Z,1352
2016-10-12T12:58:13.081Z,1760
2016-10-12T12:59:13.785Z,1584
2016-10-12T13:00:14.480Z,1212
2016-10-12T13:01:15.187Z,1020
2016-10-12T13:02:15.919Z,1168
2016-10-12T13:03:16.652Z,1624
2016-10-12T13:04:17.382Z,2160
2016-10-12T13:05:18.082Z,2384
2016-10-12T13:06:18.797Z,2520
2016-10-12T13:07:19.471Z,2852
2016-10-12T13:08:20.175Z,3264
2016-10-12T13:09:20.882Z,3616
2016-10-12T13:10:21.559Z,3896
2016-10-12T13:11:22.251Z,4396
2016-10-12T13:12:22.961Z,4576
2016-10-12T13:13:23.761Z,4540
2016-10-12T13:14:24.422Z,4568
2016-10-12T13:15:25.122Z,4536
2016-10-12T13:16:25.799Z,4324
2016-10-12T13:17:26.505Z,4116
2016-10-12T13:18:27.182Z,4184
2016-10-12T13:19:27.898Z,4388
2016-10-12T13:20:28.611Z,4600
2016-10-12T13:21:29.370Z,4800
2016-10-12T13:22:30.082Z,4880
2016-10-12T13:23:30.764Z,5032
2016-10-12T13:24:31.441Z,5104
2016-10-12T13:25:32.136Z,5088
2016-10-12T13:26:32.814Z,4852
2016-10-12T13:27:33.509Z,4652
2016-10-12T13:28:34.201Z,4012
2016-10-12T13:29:34.899Z,3856
2016-10-12T13:30:35.600Z,3248
2016-10-12T13:31:36.319Z,2372
2016-10-12T13:32:37.006Z,1948
2016-10-12T13:33:37.671Z,2140
2016-10-12T13:34:38.349Z,2616
2016-10-12T13:35:39.007Z,2336
2016-10-12T13:36:39.696Z,2328
2016-10-12T13:37:40.361Z,2792
2016-10-12T13:38:41.034Z,2920
2016-10-12T13:39:41.723Z,3208
2016-10-12T13:40:42.399Z,3464
2016-10-12T13:41:43.062Z,3000
2016-10-12T13:42:43.736Z,2404
2016-10-12T13:43:44.432Z,2544
2016-10-12T13:44:45.106Z,2496
2016-10-12T13:45:45.786Z,2408
2016-10-12T13:46:46.470Z,2512
2016-10-12T13:47:47.137Z,2564
2016-10-12T13:48:47.828Z,2428
2016-10-12T13:49:48.497Z,2496
2016-10-12T13:50:49.163Z,2680
2016-10-12T13:51:49.881Z,2792
2016-10-12T13:52:50.601Z,3208
2016-10-12T13:53:51.281Z,3960
2016-10-12T13:54:51.963Z,4340
2016-10-12T13:55:52.642Z,4512
2016-10-12T13:56:53.330Z,4548
2016-10-12T13:57:54.029Z,4856
2016-10-12T13:58:54.719Z,4812
2016-10-12T13:59:55.470Z,4644
2016-10-12T14:00:56.148Z,4432
2016-10-12T14:01:56.812Z,4372